sensor_id;sensor_type;location;lat;lon;timestamp;pressure;altitude;pressure_sealevel;temperature;humidity
44988;BME280;35735;52.226;21.254;2023-03-07T00:04:27;98983.84;;;-0.15;100.00
44988;BME280;35735;52.226;21.254;2023-03-07T00:09:28;98974.97;;;-0.17;100.00
44988;BME280;35735;52.226;21.254;2023-03-07T00:14:29;98973.16;;;-0.19;100.00
44988;BME280;35735;52.226;21.254;2023-03-07T00:19:30;98975.09;;;-0.11;100.00
44988;BME280;35735;52.226;21.254;2023-03-07T00:24:32;98985.59;;;-0.16;100.00
44988;BME280;35735;52.226;21.254;2023-03-07T00:29:32;98975.09;;;-0.11;100.00
44988;BME280;35735;52.226;21.254;2023-03-07T00:34:33;98979.59;;;-0.07;100.00
44988;BME280;35735;52.226;21.254;2023-03-07T00:39:34;98976.19;;;-0.02;100.00
44988;BME280;35735;52.226;21.254;2023-03-07T00:44:36;98982.31;;;-0.04;100.00
44988;BME280;35735;52.226;21.254;2023-03-07T00:49:36;98975.31;;;0.01;100.00
44988;BME280;35735;52.226;21.254;2023-03-07T00:54:37;98977.13;;;0.02;100.00
44988;BME280;35735;52.226;21.254;2023-03-07T00:59:37;98978.91;;;0.05;100.00
44988;BME280;35735;52.226;21.254;2023-03-07T01:04:38;98973.72;;;0.09;100.00
44988;BME280;35735;52.226;21.254;2023-03-07T01:09:38;98971.87;;;0.07;100.00
44988;BME280;35735;52.226;21.254;2023-03-07T01:14:41;98979.75;;;0.01;100.00
44988;BME280;35735;52.226;21.254;2023-03-07T01:19:42;98976.94;;;-0.07;100.00
44988;BME280;35735;52.226;21.254;2023-03-07T01:24:42;98976.03;;;-0.08;100.00
44988;BME280;35735;52.226;21.254;2023-03-07T01:29:43;98970.66;;;-0.12;100.00
44988;BME280;35735;52.226;21.254;2023-03-07T01:34:44;98960.78;;;-0.20;100.00
44988;BME280;35735;52.226;21.254;2023-03-07T01:39:44;98960.88;;;-0.16;100.00
44988;BME280;35735;52.226;21.254;2023-03-07T01:45:05;98963.44;;;-0.20;100.00
44988;BME280;35735;52.226;21.254;2023-03-07T01:50:10;98956.28;;;-0.24;100.00
44988;BME280;35735;52.226;21.254;2023-03-07T01:55:16;98963.31;;;-0.26;100.00
44988;BME280;35735;52.226;21.254;2023-03-07T02:00:20;98964.13;;;-0.30;100.00
44988;BME280;35735;52.226;21.254;2023-03-07T02:05:25;98946.34;;;-0.34;100.00
44988;BME280;35735;52.226;21.254;2023-03-07T02:10:27;98953.31;;;-0.39;100.00
44988;BME280;35735;52.226;21.254;2023-03-07T02:15:29;98962.03;;;-0.46;100.00
44988;BME280;35735;52.226;21.254;2023-03-07T02:20:45;98966.13;;;-0.61;100.00
44988;BME280;35735;52.226;21.254;2023-03-07T02:26:10;98967.94;;;-0.60;100.00
44988;BME280;35735;52.226;21.254;2023-03-07T02:31:16;98974.84;;;-0.66;100.00
44988;BME280;35735;52.226;21.254;2023-03-07T02:36:21;98976.44;;;-0.75;100.00
44988;BME280;35735;52.226;21.254;2023-03-07T02:41:27;98972.69;;;-0.84;100.00
44988;BME280;35735;52.226;21.254;2023-03-07T02:46:30;98975.22;;;-0.89;100.00
44988;BME280;35735;52.226;21.254;2023-03-07T02:51:30;98968.94;;;-0.94;100.00
44988;BME280;35735;52.226;21.254;2023-03-07T02:56:31;98962.59;;;-1.01;100.00
44988;BME280;35735;52.226;21.254;2023-03-07T03:01:32;98961.97;;;-0.89;100.00
44988;BME280;35735;52.226;21.254;2023-03-07T03:06:32;98966.41;;;-0.89;100.00
44988;BME280;35735;52.226;21.254;2023-03-07T03:11:33;98965.41;;;-0.95;100.00
44988;BME280;35735;52.226;21.254;2023-03-07T03:16:33;98957.47;;;-0.95;100.00
44988;BME280;35735;52.226;21.254;2023-03-07T03:21:34;98964.41;;;-1.00;100.00
44988;BME280;35735;52.226;21.254;2023-03-07T03:26:36;98965.97;;;-1.08;100.00
44988;BME280;35735;52.226;21.254;2023-03-07T03:31:37;98955.28;;;-1.13;100.00
44988;BME280;35735;52.226;21.254;2023-03-07T03:36:39;98957.72;;;-1.22;100.00
44988;BME280;35735;52.226;21.254;2023-03-07T03:41:40;98957.44;;;-1.33;100.00
44988;BME280;35735;52.226;21.254;2023-03-07T03:46:40;98957.16;;;-1.45;100.00
44988;BME280;35735;52.226;21.254;2023-03-07T03:51:41;98960.38;;;-1.58;100.00
44988;BME280;35735;52.226;21.254;2023-03-07T03:56:42;98946.72;;;-1.75;100.00
44988;BME280;35735;52.226;21.254;2023-03-07T04:01:42;98954.19;;;-1.92;100.00
44988;BME280;35735;52.226;21.254;2023-03-07T04:06:43;98953.12;;;-2.00;100.00
44988;BME280;35735;52.226;21.254;2023-03-07T04:11:43;98950.00;;;-2.17;100.00
44988;BME280;35735;52.226;21.254;2023-03-07T04:16:45;98957.47;;;-2.34;100.00
44988;BME280;35735;52.226;21.254;2023-03-07T04:21:46;98958.16;;;-2.42;100.00
44988;BME280;35735;52.226;21.254;2023-03-07T04:26:46;98956.13;;;-2.52;100.00
44988;BME280;35735;52.226;21.254;2023-03-07T04:31:47;98950.59;;;-2.59;100.00
44988;BME280;35735;52.226;21.254;2023-03-07T04:36:48;98951.13;;;-2.71;100.00
44988;BME280;35735;52.226;21.254;2023-03-07T04:41:49;98952.41;;;-2.89;100.00
44988;BME280;35735;52.226;21.254;2023-03-07T04:46:49;98950.97;;;-3.06;100.00
44988;BME280;35735;52.226;21.254;2023-03-07T04:51:50;98953.06;;;-3.25;100.00
44988;BME280;35735;52.226;21.254;2023-03-07T04:56:51;98959.72;;;-3.36;100.00
44988;BME280;35735;52.226;21.254;2023-03-07T05:01:51;98957.03;;;-3.38;100.00
44988;BME280;35735;52.226;21.254;2023-03-07T05:06:52;98961.16;;;-3.47;100.00
44988;BME280;35735;52.226;21.254;2023-03-07T05:11:53;98961.03;;;-3.50;100.00
44988;BME280;35735;52.226;21.254;2023-03-07T05:16:53;98954.47;;;-3.63;100.00
44988;BME280;35735;52.226;21.254;2023-03-07T05:21:54;98953.47;;;-3.67;100.00
44988;BME280;35735;52.226;21.254;2023-03-07T05:26:54;98941.22;;;-3.65;100.00
44988;BME280;35735;52.226;21.254;2023-03-07T05:31:55;98949.28;;;-3.60;100.00
44988;BME280;35735;52.226;21.254;2023-03-07T05:36:57;98942.75;;;-3.44;100.00
44988;BME280;35735;52.226;21.254;2023-03-07T05:41:57;98955.41;;;-3.34;100.00
44988;BME280;35735;52.226;21.254;2023-03-07T05:46:58;98961.62;;;-3.32;100.00
44988;BME280;35735;52.226;21.254;2023-03-07T05:51:59;98963.13;;;-3.40;100.00
44988;BME280;35735;52.226;21.254;2023-03-07T05:56:59;98969.69;;;-3.27;100.00
44988;BME280;35735;52.226;21.254;2023-03-07T06:02:00;98982.38;;;-3.15;100.00
44988;BME280;35735;52.226;21.254;2023-03-07T06:07:01;98977.22;;;-3.11;100.00
44988;BME280;35735;52.226;21.254;2023-03-07T06:12:01;98980.69;;;-3.13;100.00
44988;BME280;35735;52.226;21.254;2023-03-07T06:17:03;98975.34;;;-3.15;100.00
44988;BME280;35735;52.226;21.254;2023-03-07T06:22:04;98981.50;;;-3.14;100.00
44988;BME280;35735;52.226;21.254;2023-03-07T06:27:05;98990.38;;;-3.12;100.00
44988;BME280;35735;52.226;21.254;2023-03-07T06:32:06;98988.81;;;-3.07;100.00
44988;BME280;35735;52.226;21.254;2023-03-07T06:37:07;98969.56;;;-3.03;100.00
44988;BME280;35735;52.226;21.254;2023-03-07T06:42:08;98976.06;;;-2.92;100.00
44988;BME280;35735;52.226;21.254;2023-03-07T06:47:08;98984.25;;;-2.83;100.00
44988;BME280;35735;52.226;21.254;2023-03-07T06:52:09;98978.31;;;-2.75;100.00
44988;BME280;35735;52.226;21.254;2023-03-07T06:57:10;98972.59;;;-2.61;100.00
44988;BME280;35735;52.226;21.254;2023-03-07T07:02:12;98982.53;;;-2.52;100.00
44988;BME280;35735;52.226;21.254;2023-03-07T07:07:13;98973.09;;;-2.44;100.00
44988;BME280;35735;52.226;21.254;2023-03-07T07:12:14;98959.13;;;-2.38;100.00
44988;BME280;35735;52.226;21.254;2023-03-07T07:17:14;98966.56;;;-2.25;100.00
44988;BME280;35735;52.226;21.254;2023-03-07T07:22:15;98958.06;;;-2.13;100.00
44988;BME280;35735;52.226;21.254;2023-03-07T07:27:16;98951.00;;;-1.80;100.00
44988;BME280;35735;52.226;21.254;2023-03-07T07:32:16;98950.63;;;-1.59;100.00
44988;BME280;35735;52.226;21.254;2023-03-07T07:37:17;98936.75;;;-1.49;100.00
44988;BME280;35735;52.226;21.254;2023-03-07T07:42:17;98935.34;;;-1.35;100.00
44988;BME280;35735;52.226;21.254;2023-03-07T07:47:18;98917.16;;;-1.19;100.00
44988;BME280;35735;52.226;21.254;2023-03-07T07:52:19;98918.66;;;-0.93;100.00
44988;BME280;35735;52.226;21.254;2023-03-07T07:57:19;98912.00;;;-0.72;100.00
44988;BME280;35735;52.226;21.254;2023-03-07T08:02:20;98904.66;;;-0.43;100.00
44988;BME280;35735;52.226;21.254;2023-03-07T08:07:21;98898.72;;;-0.29;100.00
44988;BME280;35735;52.226;21.254;2023-03-07T08:12:21;98899.97;;;-0.09;100.00
44988;BME280;35735;52.226;21.254;2023-03-07T08:17:22;98892.75;;;0.33;100.00
44988;BME280;35735;52.226;21.254;2023-03-07T08:22:23;98887.94;;;0.64;100.00
44988;BME280;35735;52.226;21.254;2023-03-07T08:27:24;98890.91;;;0.85;100.00
44988;BME280;35735;52.226;21.254;2023-03-07T08:32:25;98890.34;;;1.09;100.00
44988;BME280;35735;52.226;21.254;2023-03-07T08:37:26;98889.75;;;1.34;100.00
44988;BME280;35735;52.226;21.254;2023-03-07T08:42:27;98874.16;;;1.63;100.00
44988;BME280;35735;52.226;21.254;2023-03-07T08:47:28;98881.53;;;1.90;100.00
44988;BME280;35735;52.226;21.254;2023-03-07T08:52:28;98877.31;;;2.11;100.00
44988;BME280;35735;52.226;21.254;2023-03-07T08:57:29;98864.19;;;2.37;100.00
44988;BME280;35735;52.226;21.254;2023-03-07T09:02:29;98864.34;;;2.57;100.00
44988;BME280;35735;52.226;21.254;2023-03-07T09:07:30;98855.50;;;2.58;100.00
44988;BME280;35735;52.226;21.254;2023-03-07T09:12:32;98852.88;;;2.64;100.00
44988;BME280;35735;52.226;21.254;2023-03-07T09:17:33;98837.00;;;2.83;100.00
44988;BME280;35735;52.226;21.254;2023-03-07T09:22:33;98833.50;;;2.93;100.00
44988;BME280;35735;52.226;21.254;2023-03-07T09:27:34;98827.31;;;3.02;100.00
44988;BME280;35735;52.226;21.254;2023-03-07T09:32:35;98823.88;;;3.26;100.00
44988;BME280;35735;52.226;21.254;2023-03-07T09:37:36;98825.69;;;3.38;100.00
44988;BME280;35735;52.226;21.254;2023-03-07T09:42:54;98818.59;;;3.44;100.00
44988;BME280;35735;52.226;21.254;2023-03-07T09:53:34;98811.50;;;3.46;100.00
44988;BME280;35735;52.226;21.254;2023-03-07T09:58:37;98806.16;;;3.45;100.00
44988;BME280;35735;52.226;21.254;2023-03-07T10:03:52;98799.91;;;3.35;100.00
44988;BME280;35735;52.226;21.254;2023-03-07T10:09:10;98793.66;;;3.30;100.00
44988;BME280;35735;52.226;21.254;2023-03-07T10:19:32;98779.47;;;3.40;100.00
44988;BME280;35735;52.226;21.254;2023-03-07T10:29:57;98775.03;;;3.36;100.00
44988;BME280;35735;52.226;21.254;2023-03-07T10:35:12;98767.88;;;3.20;100.00
44988;BME280;35735;52.226;21.254;2023-03-07T10:40:20;98754.53;;;3.17;100.00
44988;BME280;35735;52.226;21.254;2023-03-07T10:45:26;98744.72;;;3.15;100.00
44988;BME280;35735;52.226;21.254;2023-03-07T10:50:48;98741.16;;;3.10;100.00
44988;BME280;35735;52.226;21.254;2023-03-07T10:56:14;98729.59;;;3.08;100.00
44988;BME280;35735;52.226;21.254;2023-03-07T11:01:18;98722.50;;;3.06;100.00
44988;BME280;35735;52.226;21.254;2023-03-07T11:11:36;98691.44;;;3.12;100.00
44988;BME280;35735;52.226;21.254;2023-03-07T11:16:55;98675.41;;;3.17;100.00
44988;BME280;35735;52.226;21.254;2023-03-07T11:21:59;98669.22;;;3.21;100.00
44988;BME280;35735;52.226;21.254;2023-03-07T11:27:03;98663.00;;;3.45;100.00
44988;BME280;35735;52.226;21.254;2023-03-07T11:32:20;98653.22;;;3.55;100.00
44988;BME280;35735;52.226;21.254;2023-03-07T11:37:37;98641.66;;;3.73;100.00
44988;BME280;35735;52.226;21.254;2023-03-07T11:42:58;98631.88;;;3.77;100.00
44988;BME280;35735;52.226;21.254;2023-03-07T11:48:25;98622.97;;;3.87;100.00
44988;BME280;35735;52.226;21.254;2023-03-07T12:11:01;98585.44;;;4.36;100.00
44988;BME280;35735;52.226;21.254;2023-03-07T12:16:25;98563.06;;;4.56;100.00
44988;BME280;35735;52.226;21.254;2023-03-07T12:22:02;98565.69;;;4.65;100.00
44988;BME280;35735;52.226;21.254;2023-03-07T12:32:36;98576.28;;;4.79;100.00
44988;BME280;35735;52.226;21.254;2023-03-07T12:37:48;98546.84;;;4.85;100.00
44988;BME280;35735;52.226;21.254;2023-03-07T12:42:57;98546.81;;;4.93;100.00
44988;BME280;35735;52.226;21.254;2023-03-07T12:48:06;98537.87;;;4.94;100.00
44988;BME280;35735;52.226;21.254;2023-03-07T12:53:39;98530.72;;;4.97;100.00
44988;BME280;35735;52.226;21.254;2023-03-07T12:59:10;98514.63;;;5.04;100.00
44988;BME280;35735;52.226;21.254;2023-03-07T13:09:29;98506.41;;;5.25;100.00
44988;BME280;35735;52.226;21.254;2023-03-07T13:14:38;98501.88;;;5.33;100.00
44988;BME280;35735;52.226;21.254;2023-03-07T13:19:41;98496.53;;;5.33;100.00
44988;BME280;35735;52.226;21.254;2023-03-07T13:24:44;98483.13;;;5.36;100.00
44988;BME280;35735;52.226;21.254;2023-03-07T13:35:11;98494.56;;;5.51;100.00
44988;BME280;35735;52.226;21.254;2023-03-07T13:55:56;98471.41;;;5.51;99.56
44988;BME280;35735;52.226;21.254;2023-03-07T14:06:11;98466.97;;;5.46;99.76
44988;BME280;35735;52.226;21.254;2023-03-07T14:11:22;98458.97;;;5.43;99.82
44988;BME280;35735;52.226;21.254;2023-03-07T14:22:23;98437.69;;;5.33;99.97
44988;BME280;35735;52.226;21.254;2023-03-07T14:27:30;98419.00;;;5.30;99.75
44988;BME280;35735;52.226;21.254;2023-03-07T14:32:31;98414.59;;;5.25;99.89
44988;BME280;35735;52.226;21.254;2023-03-07T14:37:32;98408.34;;;5.23;99.86
44988;BME280;35735;52.226;21.254;2023-03-07T14:48:12;98387.84;;;5.26;99.51
44988;BME280;35735;52.226;21.254;2023-03-07T14:53:28;98389.62;;;5.24;99.29
44988;BME280;35735;52.226;21.254;2023-03-07T14:58:31;98371.84;;;5.22;99.06
44988;BME280;35735;52.226;21.254;2023-03-07T15:03:34;98371.00;;;5.16;98.90
44988;BME280;35735;52.226;21.254;2023-03-07T15:08:35;98378.09;;;5.19;98.96
44988;BME280;35735;52.226;21.254;2023-03-07T15:13:54;98372.75;;;5.17;98.84
44988;BME280;35735;52.226;21.254;2023-03-07T15:19:03;98364.72;;;5.19;98.64
44988;BME280;35735;52.226;21.254;2023-03-07T15:24:17;98362.91;;;5.21;98.58
44988;BME280;35735;52.226;21.254;2023-03-07T15:29:27;98352.19;;;5.23;98.44
44988;BME280;35735;52.226;21.254;2023-03-07T15:34:34;98353.16;;;5.18;98.20
44988;BME280;35735;52.226;21.254;2023-03-07T15:39:36;98346.91;;;5.19;98.08
44988;BME280;35735;52.226;21.254;2023-03-07T15:44:37;98346.94;;;5.18;97.91
44988;BME280;35735;52.226;21.254;2023-03-07T15:49:45;98341.56;;;5.18;97.64
44988;BME280;35735;52.226;21.254;2023-03-07T15:54:50;98330.06;;;5.13;97.20
44988;BME280;35735;52.226;21.254;2023-03-07T16:10:26;98324.75;;;5.07;96.67
44988;BME280;35735;52.226;21.254;2023-03-07T16:15:28;98324.75;;;5.07;96.54
44988;BME280;35735;52.226;21.254;2023-03-07T16:20:29;98313.22;;;5.03;96.25
44988;BME280;35735;52.226;21.254;2023-03-07T16:25:30;98315.06;;;4.99;96.26
44988;BME280;35735;52.226;21.254;2023-03-07T16:30:31;98306.12;;;4.97;96.11
44988;BME280;35735;52.226;21.254;2023-03-07T16:35:32;98298.12;;;4.97;96.11
44988;BME280;35735;52.226;21.254;2023-03-07T16:40:33;98306.16;;;4.94;95.79
44988;BME280;35735;52.226;21.254;2023-03-07T16:45:33;98306.25;;;4.88;95.75
44988;BME280;35735;52.226;21.254;2023-03-07T16:50:34;98300.97;;;4.82;95.61
44988;BME280;35735;52.226;21.254;2023-03-07T16:55:36;98293.91;;;4.78;95.57
44988;BME280;35735;52.226;21.254;2023-03-07T17:00:38;98284.13;;;4.74;95.60
44988;BME280;35735;52.226;21.254;2023-03-07T17:05:39;98287.72;;;4.73;95.55
44988;BME280;35735;52.226;21.254;2023-03-07T17:10:40;98283.31;;;4.66;95.50
44988;BME280;35735;52.226;21.254;2023-03-07T17:15:41;98275.31;;;4.64;95.47
44988;BME280;35735;52.226;21.254;2023-03-07T17:20:42;98289.62;;;4.61;95.39
44988;BME280;35735;52.226;21.254;2023-03-07T17:25:43;98283.41;;;4.59;95.48
44988;BME280;35735;52.226;21.254;2023-03-07T17:30:43;98285.22;;;4.54;95.36
44988;BME280;35735;52.226;21.254;2023-03-07T17:35:44;98282.59;;;4.51;95.50
44988;BME280;35735;52.226;21.254;2023-03-07T17:40:45;98277.28;;;4.47;95.52
44988;BME280;35735;52.226;21.254;2023-03-07T17:45:46;98276.44;;;4.43;95.64
44988;BME280;35735;52.226;21.254;2023-03-07T17:50:46;98273.81;;;4.38;95.68
44988;BME280;35735;52.226;21.254;2023-03-07T17:55:47;98272.97;;;4.35;95.81
44988;BME280;35735;52.226;21.254;2023-03-07T18:00:47;98271.19;;;4.31;95.98
44988;BME280;35735;52.226;21.254;2023-03-07T18:05:48;98264.09;;;4.30;96.15
44988;BME280;35735;52.226;21.254;2023-03-07T18:10:48;98265.84;;;4.31;96.28
44988;BME280;35735;52.226;21.254;2023-03-07T18:15:49;98265.84;;;4.31;96.32
44988;BME280;35735;52.226;21.254;2023-03-07T18:20:57;98264.97;;;4.30;96.50
44988;BME280;35735;52.226;21.254;2023-03-07T18:25:59;98249.84;;;4.31;96.52
44988;BME280;35735;52.226;21.254;2023-03-07T18:31:22;98250.75;;;4.31;96.60
44988;BME280;35735;52.226;21.254;2023-03-07T18:36:24;98246.28;;;4.32;96.74
44988;BME280;35735;52.226;21.254;2023-03-07T18:41:26;98240.06;;;4.33;96.83
44988;BME280;35735;52.226;21.254;2023-03-07T18:46:27;98239.13;;;4.34;96.87
44988;BME280;35735;52.226;21.254;2023-03-07T18:51:28;98244.47;;;4.35;97.07
44988;BME280;35735;52.226;21.254;2023-03-07T18:56:29;98234.72;;;4.33;97.20
44988;BME280;35735;52.226;21.254;2023-03-07T19:01:32;98242.66;;;4.36;97.32
44988;BME280;35735;52.226;21.254;2023-03-07T19:06:36;98235.53;;;4.38;97.36
44988;BME280;35735;52.226;21.254;2023-03-07T19:11:38;98243.56;;;4.38;97.41
44988;BME280;35735;52.226;21.254;2023-03-07T19:16:39;98239.97;;;4.39;97.50
44988;BME280;35735;52.226;21.254;2023-03-07T19:21:40;98241.75;;;4.40;97.62
44988;BME280;35735;52.226;21.254;2023-03-07T19:26:40;98246.16;;;4.41;97.67
44988;BME280;35735;52.226;21.254;2023-03-07T19:31:41;98239.91;;;4.45;97.79
44988;BME280;35735;52.226;21.254;2023-03-07T19:36:41;98238.13;;;4.45;97.94
44988;BME280;35735;52.226;21.254;2023-03-07T19:41:42;98237.19;;;4.51;98.10
44988;BME280;35735;52.226;21.254;2023-03-07T19:46:42;98230.91;;;4.52;98.33
44988;BME280;35735;52.226;21.254;2023-03-07T19:51:43;98227.38;;;4.53;98.66
44988;BME280;35735;52.226;21.254;2023-03-07T19:56:44;98233.56;;;4.55;99.18
44988;BME280;35735;52.226;21.254;2023-03-07T20:01:44;98223.78;;;4.54;99.56
44988;BME280;35735;52.226;21.254;2023-03-07T20:06:45;98228.22;;;4.55;100.00
44988;BME280;35735;52.226;21.254;2023-03-07T20:11:46;98224.66;;;4.56;100.00
44988;BME280;35735;52.226;21.254;2023-03-07T20:16:46;98228.19;;;4.58;100.00
44988;BME280;35735;52.226;21.254;2023-03-07T20:21:47;98229.09;;;4.56;100.00
44988;BME280;35735;52.226;21.254;2023-03-07T20:26:47;98222.00;;;4.56;100.00
44988;BME280;35735;52.226;21.254;2023-03-07T20:31:48;98227.38;;;4.53;100.00
44988;BME280;35735;52.226;21.254;2023-03-07T20:36:49;98226.50;;;4.50;100.00
44988;BME280;35735;52.226;21.254;2023-03-07T20:41:50;98215.84;;;4.48;100.00
44988;BME280;35735;52.226;21.254;2023-03-07T20:46:50;98220.34;;;4.44;100.00
44988;BME280;35735;52.226;21.254;2023-03-07T20:51:54;98226.59;;;4.39;100.00
44988;BME280;35735;52.226;21.254;2023-03-07T20:56:54;98217.72;;;4.37;100.00
44988;BME280;35735;52.226;21.254;2023-03-07T21:01:56;98217.81;;;4.29;100.00
44988;BME280;35735;52.226;21.254;2023-03-07T21:06:56;98221.41;;;4.25;100.00
44988;BME280;35735;52.226;21.254;2023-03-07T21:11:57;98214.38;;;4.19;100.00
44988;BME280;35735;52.226;21.254;2023-03-07T21:16:58;98203.72;;;4.16;100.00
44988;BME280;35735;52.226;21.254;2023-03-07T21:21:58;98207.28;;;4.12;100.00
44988;BME280;35735;52.226;21.254;2023-03-07T21:26:59;98207.31;;;4.09;100.00
44988;BME280;35735;52.226;21.254;2023-03-07T21:31:59;98195.78;;;4.05;100.00
44988;BME280;35735;52.226;21.254;2023-03-07T21:37:00;98211.81;;;4.02;100.00
44988;BME280;35735;52.226;21.254;2023-03-07T21:42:00;98206.53;;;3.99;100.00
44988;BME280;35735;52.226;21.254;2023-03-07T21:47:01;98209.16;;;4.01;100.00
44988;BME280;35735;52.226;21.254;2023-03-07T21:52:04;98209.22;;;3.98;100.00
44988;BME280;35735;52.226;21.254;2023-03-07T21:57:05;98207.41;;;4.00;100.00
44988;BME280;35735;52.226;21.254;2023-03-07T22:02:05;98203.81;;;4.01;100.00
44988;BME280;35735;52.226;21.254;2023-03-07T22:07:06;98209.16;;;4.04;100.00
44988;BME280;35735;52.226;21.254;2023-03-07T22:12:07;98203.81;;;4.02;100.00
44988;BME280;35735;52.226;21.254;2023-03-07T22:17:07;98210.94;;;4.05;100.00
44988;BME280;35735;52.226;21.254;2023-03-07T22:22:08;98210.03;;;4.06;100.00
44988;BME280;35735;52.226;21.254;2023-03-07T22:27:09;98213.59;;;4.06;100.00
44988;BME280;35735;52.226;21.254;2023-03-07T22:32:09;98210.91;;;4.08;100.00
44988;BME280;35735;52.226;21.254;2023-03-07T22:37:10;98215.31;;;4.12;100.00
44988;BME280;35735;52.226;21.254;2023-03-07T22:42:10;98216.22;;;4.10;100.00
44988;BME280;35735;52.226;21.254;2023-03-07T22:47:11;98235.78;;;4.12;100.00
44988;BME280;35735;52.226;21.254;2023-03-07T22:52:11;98237.62;;;4.05;100.00
44988;BME280;35735;52.226;21.254;2023-03-07T22:57:12;98259.94;;;3.98;100.00
44988;BME280;35735;52.226;21.254;2023-03-07T23:02:12;98266.34;;;3.70;100.00
44988;BME280;35735;52.226;21.254;2023-03-07T23:07:13;98281.72;;;3.30;100.00
44988;BME280;35735;52.226;21.254;2023-03-07T23:12:14;98295.16;;;3.05;100.00
44988;BME280;35735;52.226;21.254;2023-03-07T23:17:14;98309.47;;;2.76;100.00
44988;BME280;35735;52.226;21.254;2023-03-07T23:22:15;98308.63;;;2.51;100.00
44988;BME280;35735;52.226;21.254;2023-03-07T23:27:15;98324.59;;;2.40;100.00
44988;BME280;35735;52.226;21.254;2023-03-07T23:32:16;98326.41;;;2.32;100.00
44988;BME280;35735;52.226;21.254;2023-03-07T23:37:17;98319.28;;;2.30;100.00
44988;BME280;35735;52.226;21.254;2023-03-07T23:42:17;98333.50;;;2.18;100.00
44988;BME280;35735;52.226;21.254;2023-03-07T23:47:18;98338.81;;;2.16;100.00
44988;BME280;35735;52.226;21.254;2023-03-07T23:52:18;98345.94;;;2.17;100.00
44988;BME280;35735;52.226;21.254;2023-03-07T23:57:19;98341.47;;;2.12;100.00
